sensor_id;sensor_type;location;lat;lon;timestamp;temperature;humidity
610;DHT22;292;48.800;9.216;2023-06-10T00:01:45;22.80;52.50
610;DHT22;292;48.800;9.216;2023-06-10T00:04:13;22.80;52.60
610;DHT22;292;48.800;9.216;2023-06-10T00:06:40;22.70;52.60
610;DHT22;292;48.800;9.216;2023-06-10T00:09:07;22.70;52.60
610;DHT22;292;48.800;9.216;2023-06-10T00:11:35;22.70;52.80
610;DHT22;292;48.800;9.216;2023-06-10T00:14:03;22.70;52.50
610;DHT22;292;48.800;9.216;2023-06-10T00:16:31;22.70;52.60
610;DHT22;292;48.800;9.216;2023-06-10T00:18:59;22.70;53.00
610;DHT22;292;48.800;9.216;2023-06-10T00:21:27;22.70;53.00
610;DHT22;292;48.800;9.216;2023-06-10T00:23:54;22.60;53.20
610;DHT22;292;48.800;9.216;2023-06-10T00:26:21;22.60;53.40
610;DHT22;292;48.800;9.216;2023-06-10T00:28:48;22.60;53.60
610;DHT22;292;48.800;9.216;2023-06-10T00:31:15;22.60;53.60
610;DHT22;292;48.800;9.216;2023-06-10T00:33:44;22.60;53.70
610;DHT22;292;48.800;9.216;2023-06-10T00:36:11;22.60;54.10
610;DHT22;292;48.800;9.216;2023-06-10T00:38:38;22.50;54.10
610;DHT22;292;48.800;9.216;2023-06-10T00:41:06;22.50;54.20
610;DHT22;292;48.800;9.216;2023-06-10T00:43:33;22.50;54.40
610;DHT22;292;48.800;9.216;2023-06-10T00:46:00;22.50;54.60
610;DHT22;292;48.800;9.216;2023-06-10T00:48:28;22.50;54.60
610;DHT22;292;48.800;9.216;2023-06-10T00:50:56;22.40;54.40
610;DHT22;292;48.800;9.216;2023-06-10T00:53:23;22.40;54.40
610;DHT22;292;48.800;9.216;2023-06-10T00:55:51;22.40;54.50
610;DHT22;292;48.800;9.216;2023-06-10T00:58:19;22.40;54.60
610;DHT22;292;48.800;9.216;2023-06-10T01:00:47;22.30;54.90
610;DHT22;292;48.800;9.216;2023-06-10T01:03:15;22.30;55.20
610;DHT22;292;48.800;9.216;2023-06-10T01:05:43;22.30;55.20
610;DHT22;292;48.800;9.216;2023-06-10T01:08:18;22.20;55.30
610;DHT22;292;48.800;9.216;2023-06-10T01:10:51;22.20;56.00
610;DHT22;292;48.800;9.216;2023-06-10T01:13:20;22.10;56.40
610;DHT22;292;48.800;9.216;2023-06-10T01:15:53;22.10;56.60
610;DHT22;292;48.800;9.216;2023-06-10T01:18:20;22.10;56.80
610;DHT22;292;48.800;9.216;2023-06-10T01:20:48;22.00;56.60
610;DHT22;292;48.800;9.216;2023-06-10T01:23:16;22.00;56.80
610;DHT22;292;48.800;9.216;2023-06-10T01:25:47;22.00;57.00
610;DHT22;292;48.800;9.216;2023-06-10T01:28:20;21.90;57.00
610;DHT22;292;48.800;9.216;2023-06-10T01:30:52;21.90;57.00
610;DHT22;292;48.800;9.216;2023-06-10T01:33:26;21.90;56.90
610;DHT22;292;48.800;9.216;2023-06-10T01:35:56;21.80;56.90
610;DHT22;292;48.800;9.216;2023-06-10T01:38:25;21.80;57.00
610;DHT22;292;48.800;9.216;2023-06-10T01:40:55;21.80;57.30
610;DHT22;292;48.800;9.216;2023-06-10T01:43:23;21.80;57.40
610;DHT22;292;48.800;9.216;2023-06-10T01:45:50;21.70;57.80
610;DHT22;292;48.800;9.216;2023-06-10T01:48:17;21.70;57.60
610;DHT22;292;48.800;9.216;2023-06-10T01:50:44;21.70;57.60
610;DHT22;292;48.800;9.216;2023-06-10T01:53:11;21.70;57.60
610;DHT22;292;48.800;9.216;2023-06-10T01:55:40;21.60;57.70
610;DHT22;292;48.800;9.216;2023-06-10T01:58:07;21.60;57.80
610;DHT22;292;48.800;9.216;2023-06-10T02:00:34;21.50;58.00
610;DHT22;292;48.800;9.216;2023-06-10T02:03:01;21.50;58.10
610;DHT22;292;48.800;9.216;2023-06-10T02:05:28;21.50;58.20
610;DHT22;292;48.800;9.216;2023-06-10T02:07:55;21.40;58.50
610;DHT22;292;48.800;9.216;2023-06-10T02:10:22;21.40;58.60
610;DHT22;292;48.800;9.216;2023-06-10T02:12:50;21.40;58.60
610;DHT22;292;48.800;9.216;2023-06-10T02:15:18;21.30;58.80
610;DHT22;292;48.800;9.216;2023-06-10T02:17:45;21.30;59.00
610;DHT22;292;48.800;9.216;2023-06-10T02:20:12;21.30;59.20
610;DHT22;292;48.800;9.216;2023-06-10T02:22:40;21.20;59.20
610;DHT22;292;48.800;9.216;2023-06-10T02:25:08;21.20;59.30
610;DHT22;292;48.800;9.216;2023-06-10T02:27:35;21.20;59.60
610;DHT22;292;48.800;9.216;2023-06-10T02:30:05;21.20;59.80
610;DHT22;292;48.800;9.216;2023-06-10T02:32:32;21.20;60.00
610;DHT22;292;48.800;9.216;2023-06-10T02:34:59;21.10;60.10
610;DHT22;292;48.800;9.216;2023-06-10T02:37:27;21.10;60.20
610;DHT22;292;48.800;9.216;2023-06-10T02:39:54;21.10;60.40
610;DHT22;292;48.800;9.216;2023-06-10T02:42:21;21.00;60.50
610;DHT22;292;48.800;9.216;2023-06-10T02:44:48;21.00;60.80
610;DHT22;292;48.800;9.216;2023-06-10T02:47:17;20.90;61.00
610;DHT22;292;48.800;9.216;2023-06-10T02:49:43;20.90;61.00
610;DHT22;292;48.800;9.216;2023-06-10T02:52:11;20.90;60.80
610;DHT22;292;48.800;9.216;2023-06-10T02:54:38;20.80;60.80
610;DHT22;292;48.800;9.216;2023-06-10T02:57:05;20.80;60.70
610;DHT22;292;48.800;9.216;2023-06-10T02:59:33;20.70;60.70
610;DHT22;292;48.800;9.216;2023-06-10T03:02:00;20.70;60.80
610;DHT22;292;48.800;9.216;2023-06-10T03:04:29;20.70;60.80
610;DHT22;292;48.800;9.216;2023-06-10T03:06:56;20.70;60.70
610;DHT22;292;48.800;9.216;2023-06-10T03:09:23;20.70;60.80
610;DHT22;292;48.800;9.216;2023-06-10T03:11:50;20.70;60.80
610;DHT22;292;48.800;9.216;2023-06-10T03:14:17;20.70;61.00
610;DHT22;292;48.800;9.216;2023-06-10T03:16:44;20.70;61.00
610;DHT22;292;48.800;9.216;2023-06-10T03:19:11;20.70;61.00
610;DHT22;292;48.800;9.216;2023-06-10T03:21:43;20.70;61.20
610;DHT22;292;48.800;9.216;2023-06-10T03:24:10;20.60;62.00
610;DHT22;292;48.800;9.216;2023-06-10T03:26:38;20.60;62.30
610;DHT22;292;48.800;9.216;2023-06-10T03:29:04;20.60;62.30
610;DHT22;292;48.800;9.216;2023-06-10T03:31:31;20.60;62.10
610;DHT22;292;48.800;9.216;2023-06-10T03:33:58;20.60;62.10
610;DHT22;292;48.800;9.216;2023-06-10T03:36:25;20.60;62.40
610;DHT22;292;48.800;9.216;2023-06-10T03:38:55;20.60;62.30
610;DHT22;292;48.800;9.216;2023-06-10T03:41:23;20.50;62.30
610;DHT22;292;48.800;9.216;2023-06-10T03:43:51;20.50;62.30
610;DHT22;292;48.800;9.216;2023-06-10T03:46:18;20.50;62.40
610;DHT22;292;48.800;9.216;2023-06-10T03:48:45;20.50;63.10
610;DHT22;292;48.800;9.216;2023-06-10T03:51:13;20.50;63.60
610;DHT22;292;48.800;9.216;2023-06-10T03:53:41;20.50;64.00
610;DHT22;292;48.800;9.216;2023-06-10T03:56:09;20.50;63.70
610;DHT22;292;48.800;9.216;2023-06-10T03:58:36;20.50;63.40
610;DHT22;292;48.800;9.216;2023-06-10T04:01:04;20.50;63.40
610;DHT22;292;48.800;9.216;2023-06-10T04:03:31;20.50;63.80
610;DHT22;292;48.800;9.216;2023-06-10T04:05:58;20.50;64.60
610;DHT22;292;48.800;9.216;2023-06-10T04:08:25;20.50;64.10
610;DHT22;292;48.800;9.216;2023-06-10T04:10:53;20.50;63.40
610;DHT22;292;48.800;9.216;2023-06-10T04:13:21;20.50;63.10
610;DHT22;292;48.800;9.216;2023-06-10T04:15:48;20.50;62.80
610;DHT22;292;48.800;9.216;2023-06-10T04:18:16;20.50;62.70
610;DHT22;292;48.800;9.216;2023-06-10T04:20:43;20.50;62.70
610;DHT22;292;48.800;9.216;2023-06-10T04:23:11;20.50;62.70
610;DHT22;292;48.800;9.216;2023-06-10T04:25:38;20.50;62.70
610;DHT22;292;48.800;9.216;2023-06-10T04:28:05;20.40;62.40
610;DHT22;292;48.800;9.216;2023-06-10T04:30:34;20.40;62.10
610;DHT22;292;48.800;9.216;2023-06-10T04:33:01;20.40;62.30
610;DHT22;292;48.800;9.216;2023-06-10T04:35:28;20.40;62.70
610;DHT22;292;48.800;9.216;2023-06-10T04:37:58;20.40;63.00
610;DHT22;292;48.800;9.216;2023-06-10T04:40:28;20.40;62.80
610;DHT22;292;48.800;9.216;2023-06-10T04:42:55;20.40;62.80
610;DHT22;292;48.800;9.216;2023-06-10T04:45:22;20.40;63.00
610;DHT22;292;48.800;9.216;2023-06-10T04:47:51;20.40;63.10
610;DHT22;292;48.800;9.216;2023-06-10T04:50:21;20.40;63.00
610;DHT22;292;48.800;9.216;2023-06-10T04:52:48;20.50;63.30
610;DHT22;292;48.800;9.216;2023-06-10T04:55:16;20.50;63.00
610;DHT22;292;48.800;9.216;2023-06-10T04:57:43;20.50;62.70
610;DHT22;292;48.800;9.216;2023-06-10T05:00:11;20.50;62.50
610;DHT22;292;48.800;9.216;2023-06-10T05:02:39;20.60;62.40
610;DHT22;292;48.800;9.216;2023-06-10T05:05:07;20.60;62.30
610;DHT22;292;48.800;9.216;2023-06-10T05:07:34;20.70;62.40
610;DHT22;292;48.800;9.216;2023-06-10T05:10:02;20.70;62.40
610;DHT22;292;48.800;9.216;2023-06-10T05:12:29;20.70;62.50
610;DHT22;292;48.800;9.216;2023-06-10T05:14:56;20.80;62.10
610;DHT22;292;48.800;9.216;2023-06-10T05:17:23;20.80;61.70
610;DHT22;292;48.800;9.216;2023-06-10T05:19:51;20.80;61.20
610;DHT22;292;48.800;9.216;2023-06-10T05:22:19;20.90;61.00
610;DHT22;292;48.800;9.216;2023-06-10T05:24:49;20.90;60.80
610;DHT22;292;48.800;9.216;2023-06-10T05:27:16;20.90;60.80
610;DHT22;292;48.800;9.216;2023-06-10T05:29:43;21.00;60.70
610;DHT22;292;48.800;9.216;2023-06-10T05:32:10;21.00;60.70
610;DHT22;292;48.800;9.216;2023-06-10T05:34:38;21.10;60.50
610;DHT22;292;48.800;9.216;2023-06-10T05:37:05;21.10;60.50
610;DHT22;292;48.800;9.216;2023-06-10T05:39:35;21.20;60.40
610;DHT22;292;48.800;9.216;2023-06-10T05:42:05;21.20;60.20
610;DHT22;292;48.800;9.216;2023-06-10T05:44:32;21.30;60.10
610;DHT22;292;48.800;9.216;2023-06-10T05:47:00;21.30;60.00
610;DHT22;292;48.800;9.216;2023-06-10T05:49:27;21.40;60.10
610;DHT22;292;48.800;9.216;2023-06-10T05:51:54;21.40;60.00
610;DHT22;292;48.800;9.216;2023-06-10T05:54:21;21.50;60.00
610;DHT22;292;48.800;9.216;2023-06-10T05:56:50;21.50;60.10
610;DHT22;292;48.800;9.216;2023-06-10T05:59:17;21.60;59.80
610;DHT22;292;48.800;9.216;2023-06-10T06:01:44;21.70;59.70
610;DHT22;292;48.800;9.216;2023-06-10T06:04:11;21.70;60.10
610;DHT22;292;48.800;9.216;2023-06-10T06:06:38;21.80;59.70
610;DHT22;292;48.800;9.216;2023-06-10T06:09:06;21.90;60.00
610;DHT22;292;48.800;9.216;2023-06-10T06:11:34;22.00;59.60
610;DHT22;292;48.800;9.216;2023-06-10T06:14:02;22.00;59.30
610;DHT22;292;48.800;9.216;2023-06-10T06:16:30;22.10;59.20
610;DHT22;292;48.800;9.216;2023-06-10T06:18:56;22.20;59.40
610;DHT22;292;48.800;9.216;2023-06-10T06:21:23;22.30;58.90
610;DHT22;292;48.800;9.216;2023-06-10T06:23:51;22.30;58.60
610;DHT22;292;48.800;9.216;2023-06-10T06:26:18;22.40;58.40
610;DHT22;292;48.800;9.216;2023-06-10T06:28:45;22.50;58.20
610;DHT22;292;48.800;9.216;2023-06-10T06:31:13;22.60;58.10
610;DHT22;292;48.800;9.216;2023-06-10T06:33:40;22.60;58.10
610;DHT22;292;48.800;9.216;2023-06-10T06:36:07;22.70;57.80
610;DHT22;292;48.800;9.216;2023-06-10T06:38:34;22.80;57.70
610;DHT22;292;48.800;9.216;2023-06-10T06:41:01;22.80;57.60
610;DHT22;292;48.800;9.216;2023-06-10T06:43:31;22.90;57.30
610;DHT22;292;48.800;9.216;2023-06-10T06:45:58;23.00;57.20
610;DHT22;292;48.800;9.216;2023-06-10T06:48:27;23.10;56.90
610;DHT22;292;48.800;9.216;2023-06-10T06:50:54;23.10;56.80
610;DHT22;292;48.800;9.216;2023-06-10T06:53:21;23.20;56.50
610;DHT22;292;48.800;9.216;2023-06-10T06:55:49;23.30;56.40
610;DHT22;292;48.800;9.216;2023-06-10T06:58:16;23.30;56.10
610;DHT22;292;48.800;9.216;2023-06-10T07:00:43;23.40;55.80
610;DHT22;292;48.800;9.216;2023-06-10T07:03:10;23.40;55.60
610;DHT22;292;48.800;9.216;2023-06-10T07:05:38;23.50;55.40
610;DHT22;292;48.800;9.216;2023-06-10T07:08:05;23.60;55.30
610;DHT22;292;48.800;9.216;2023-06-10T07:10:32;23.60;55.20
610;DHT22;292;48.800;9.216;2023-06-10T07:12:59;23.70;55.20
610;DHT22;292;48.800;9.216;2023-06-10T07:15:26;23.70;54.90
610;DHT22;292;48.800;9.216;2023-06-10T07:17:53;23.80;54.60
610;DHT22;292;48.800;9.216;2023-06-10T07:20:21;23.80;54.50
610;DHT22;292;48.800;9.216;2023-06-10T07:22:49;23.90;54.40
610;DHT22;292;48.800;9.216;2023-06-10T07:25:16;23.90;54.10
610;DHT22;292;48.800;9.216;2023-06-10T07:27:43;23.90;54.00
610;DHT22;292;48.800;9.216;2023-06-10T07:30:11;23.90;53.80
610;DHT22;292;48.800;9.216;2023-06-10T07:32:39;24.00;54.00
610;DHT22;292;48.800;9.216;2023-06-10T07:35:09;24.00;54.00
610;DHT22;292;48.800;9.216;2023-06-10T07:37:36;24.10;53.80
610;DHT22;292;48.800;9.216;2023-06-10T07:40:06;24.10;53.80
610;DHT22;292;48.800;9.216;2023-06-10T07:42:35;24.20;53.70
610;DHT22;292;48.800;9.216;2023-06-10T07:45:02;24.30;53.70
610;DHT22;292;48.800;9.216;2023-06-10T07:47:29;24.30;53.60
610;DHT22;292;48.800;9.216;2023-06-10T07:49:56;24.40;53.30
610;DHT22;292;48.800;9.216;2023-06-10T07:52:23;24.50;53.00
610;DHT22;292;48.800;9.216;2023-06-10T07:54:51;24.50;52.80
610;DHT22;292;48.800;9.216;2023-06-10T07:57:20;24.60;52.50
610;DHT22;292;48.800;9.216;2023-06-10T07:59:47;24.70;52.20
610;DHT22;292;48.800;9.216;2023-06-10T08:02:14;24.80;52.10
610;DHT22;292;48.800;9.216;2023-06-10T08:04:41;24.90;51.70
610;DHT22;292;48.800;9.216;2023-06-10T08:07:08;25.00;51.40
610;DHT22;292;48.800;9.216;2023-06-10T08:09:35;25.00;51.30
610;DHT22;292;48.800;9.216;2023-06-10T08:12:04;25.10;50.90
610;DHT22;292;48.800;9.216;2023-06-10T08:14:32;25.10;50.90
610;DHT22;292;48.800;9.216;2023-06-10T08:16:59;25.20;50.60
610;DHT22;292;48.800;9.216;2023-06-10T08:19:27;25.20;50.50
610;DHT22;292;48.800;9.216;2023-06-10T08:21:54;25.30;50.50
610;DHT22;292;48.800;9.216;2023-06-10T08:24:21;25.40;50.40
610;DHT22;292;48.800;9.216;2023-06-10T08:26:48;25.40;50.20
610;DHT22;292;48.800;9.216;2023-06-10T08:29:15;25.50;50.00
610;DHT22;292;48.800;9.216;2023-06-10T08:31:44;25.60;49.70
610;DHT22;292;48.800;9.216;2023-06-10T08:34:11;25.60;49.40
610;DHT22;292;48.800;9.216;2023-06-10T08:36:38;25.70;49.40
610;DHT22;292;48.800;9.216;2023-06-10T08:39:05;25.80;49.30
610;DHT22;292;48.800;9.216;2023-06-10T08:41:35;25.90;49.30
610;DHT22;292;48.800;9.216;2023-06-10T08:44:09;25.90;48.90
610;DHT22;292;48.800;9.216;2023-06-10T08:46:37;26.00;48.50
610;DHT22;292;48.800;9.216;2023-06-10T08:49:06;26.10;48.20
610;DHT22;292;48.800;9.216;2023-06-10T08:51:35;26.10;47.80
610;DHT22;292;48.800;9.216;2023-06-10T08:54:08;26.10;47.20
610;DHT22;292;48.800;9.216;2023-06-10T08:56:40;26.20;46.80
610;DHT22;292;48.800;9.216;2023-06-10T08:59:08;26.20;46.80
610;DHT22;292;48.800;9.216;2023-06-10T09:01:36;26.30;46.90
610;DHT22;292;48.800;9.216;2023-06-10T09:04:03;26.30;46.90
610;DHT22;292;48.800;9.216;2023-06-10T09:06:33;26.40;46.90
610;DHT22;292;48.800;9.216;2023-06-10T09:09:01;26.40;46.90
610;DHT22;292;48.800;9.216;2023-06-10T09:11:29;26.50;46.80
610;DHT22;292;48.800;9.216;2023-06-10T09:13:56;26.60;46.60
610;DHT22;292;48.800;9.216;2023-06-10T09:16:23;26.60;46.40
610;DHT22;292;48.800;9.216;2023-06-10T09:18:51;26.70;46.10
610;DHT22;292;48.800;9.216;2023-06-10T09:21:21;26.70;46.00
610;DHT22;292;48.800;9.216;2023-06-10T09:23:50;26.80;45.80
610;DHT22;292;48.800;9.216;2023-06-10T09:26:17;26.90;45.70
610;DHT22;292;48.800;9.216;2023-06-10T09:28:44;26.90;45.60
610;DHT22;292;48.800;9.216;2023-06-10T09:31:14;27.00;45.40
610;DHT22;292;48.800;9.216;2023-06-10T09:33:44;27.00;45.40
610;DHT22;292;48.800;9.216;2023-06-10T09:36:11;27.10;45.20
610;DHT22;292;48.800;9.216;2023-06-10T09:38:49;27.10;44.90
610;DHT22;292;48.800;9.216;2023-06-10T09:41:17;27.20;44.80
610;DHT22;292;48.800;9.216;2023-06-10T09:43:45;27.20;44.60
610;DHT22;292;48.800;9.216;2023-06-10T09:46:15;27.20;44.50
610;DHT22;292;48.800;9.216;2023-06-10T09:48:44;27.30;44.40
610;DHT22;292;48.800;9.216;2023-06-10T09:51:12;27.40;44.40
610;DHT22;292;48.800;9.216;2023-06-10T09:53:39;27.50;44.10
610;DHT22;292;48.800;9.216;2023-06-10T09:56:08;27.50;44.10
610;DHT22;292;48.800;9.216;2023-06-10T09:58:36;27.60;44.00
610;DHT22;292;48.800;9.216;2023-06-10T10:01:08;27.60;43.60
610;DHT22;292;48.800;9.216;2023-06-10T10:03:43;27.60;43.60
610;DHT22;292;48.800;9.216;2023-06-10T10:06:11;27.70;43.30
610;DHT22;292;48.800;9.216;2023-06-10T10:08:39;27.80;43.20
610;DHT22;292;48.800;9.216;2023-06-10T10:11:05;27.80;43.20
610;DHT22;292;48.800;9.216;2023-06-10T10:13:35;27.80;42.90
610;DHT22;292;48.800;9.216;2023-06-10T10:16:06;27.90;43.00
610;DHT22;292;48.800;9.216;2023-06-10T10:18:34;27.90;42.60
610;DHT22;292;48.800;9.216;2023-06-10T10:21:13;28.00;42.50
610;DHT22;292;48.800;9.216;2023-06-10T10:23:48;28.00;42.50
610;DHT22;292;48.800;9.216;2023-06-10T10:26:17;28.00;42.50
610;DHT22;292;48.800;9.216;2023-06-10T10:28:51;28.10;42.50
610;DHT22;292;48.800;9.216;2023-06-10T10:31:21;28.20;42.00
610;DHT22;292;48.800;9.216;2023-06-10T10:33:54;28.20;41.30
610;DHT22;292;48.800;9.216;2023-06-10T10:36:22;28.30;41.20
610;DHT22;292;48.800;9.216;2023-06-10T10:38:50;28.40;41.20
610;DHT22;292;48.800;9.216;2023-06-10T10:41:18;28.40;41.30
610;DHT22;292;48.800;9.216;2023-06-10T10:43:48;28.50;41.40
610;DHT22;292;48.800;9.216;2023-06-10T10:46:17;28.60;41.60
610;DHT22;292;48.800;9.216;2023-06-10T10:48:44;28.60;41.40
610;DHT22;292;48.800;9.216;2023-06-10T10:51:12;28.60;41.30
610;DHT22;292;48.800;9.216;2023-06-10T10:53:42;28.60;41.00
610;DHT22;292;48.800;9.216;2023-06-10T10:56:14;28.70;40.90
610;DHT22;292;48.800;9.216;2023-06-10T10:58:41;28.70;40.80
610;DHT22;292;48.800;9.216;2023-06-10T11:01:14;28.70;40.80
610;DHT22;292;48.800;9.216;2023-06-10T11:03:45;28.70;40.80
610;DHT22;292;48.800;9.216;2023-06-10T11:06:13;28.70;40.90
610;DHT22;292;48.800;9.216;2023-06-10T11:08:50;28.70;41.00
610;DHT22;292;48.800;9.216;2023-06-10T11:11:19;28.70;40.80
610;DHT22;292;48.800;9.216;2023-06-10T11:14:06;28.70;40.60
610;DHT22;292;48.800;9.216;2023-06-10T11:16:40;28.70;40.50
610;DHT22;292;48.800;9.216;2023-06-10T11:19:08;28.70;40.50
610;DHT22;292;48.800;9.216;2023-06-10T11:21:57;28.80;40.50
610;DHT22;292;48.800;9.216;2023-06-10T11:24:25;28.80;40.40
610;DHT22;292;48.800;9.216;2023-06-10T11:26:55;28.90;40.50
610;DHT22;292;48.800;9.216;2023-06-10T11:29:55;28.90;40.40
610;DHT22;292;48.800;9.216;2023-06-10T11:32:25;29.00;39.80
610;DHT22;292;48.800;9.216;2023-06-10T11:34:56;29.00;39.60
610;DHT22;292;48.800;9.216;2023-06-10T11:37:23;29.10;39.40
610;DHT22;292;48.800;9.216;2023-06-10T11:39:52;29.10;39.40
610;DHT22;292;48.800;9.216;2023-06-10T11:42:21;29.10;39.00
610;DHT22;292;48.800;9.216;2023-06-10T11:44:49;29.10;39.30
610;DHT22;292;48.800;9.216;2023-06-10T11:47:16;29.10;39.30
610;DHT22;292;48.800;9.216;2023-06-10T11:49:46;29.20;39.30
610;DHT22;292;48.800;9.216;2023-06-10T11:52:26;29.20;39.40
610;DHT22;292;48.800;9.216;2023-06-10T11:54:54;29.20;39.30
610;DHT22;292;48.800;9.216;2023-06-10T11:57:21;29.20;39.00
610;DHT22;292;48.800;9.216;2023-06-10T11:59:49;29.20;39.00
610;DHT22;292;48.800;9.216;2023-06-10T12:02:16;29.20;38.90
610;DHT22;292;48.800;9.216;2023-06-10T12:04:46;29.20;38.80
610;DHT22;292;48.800;9.216;2023-06-10T12:07:17;29.10;38.80
610;DHT22;292;48.800;9.216;2023-06-10T12:09:45;29.20;38.90
610;DHT22;292;48.800;9.216;2023-06-10T12:12:12;29.10;38.80
610;DHT22;292;48.800;9.216;2023-06-10T12:14:55;29.20;38.80
610;DHT22;292;48.800;9.216;2023-06-10T12:17:34;29.20;38.80
610;DHT22;292;48.800;9.216;2023-06-10T12:20:06;29.30;38.50
610;DHT22;292;48.800;9.216;2023-06-10T12:22:38;29.40;38.00
610;DHT22;292;48.800;9.216;2023-06-10T12:25:06;29.50;37.60
610;DHT22;292;48.800;9.216;2023-06-10T12:27:34;29.50;37.30
610;DHT22;292;48.800;9.216;2023-06-10T12:30:04;29.60;36.90
610;DHT22;292;48.800;9.216;2023-06-10T12:32:38;29.60;36.90
610;DHT22;292;48.800;9.216;2023-06-10T12:35:09;29.60;36.90
610;DHT22;292;48.800;9.216;2023-06-10T12:37:37;29.60;36.60
610;DHT22;292;48.800;9.216;2023-06-10T12:40:06;29.60;36.50
610;DHT22;292;48.800;9.216;2023-06-10T12:42:34;29.60;36.40
610;DHT22;292;48.800;9.216;2023-06-10T12:45:03;29.70;36.40
610;DHT22;292;48.800;9.216;2023-06-10T12:47:33;29.70;36.40
610;DHT22;292;48.800;9.216;2023-06-10T12:50:01;29.80;36.40
610;DHT22;292;48.800;9.216;2023-06-10T12:52:30;29.90;36.40
610;DHT22;292;48.800;9.216;2023-06-10T12:54:58;29.90;36.10
610;DHT22;292;48.800;9.216;2023-06-10T12:57:26;29.90;35.80
610;DHT22;292;48.800;9.216;2023-06-10T12:59:53;30.00;35.80
610;DHT22;292;48.800;9.216;2023-06-10T13:02:22;30.00;35.70
610;DHT22;292;48.800;9.216;2023-06-10T13:04:49;29.90;35.70
610;DHT22;292;48.800;9.216;2023-06-10T13:07:17;29.90;35.60
610;DHT22;292;48.800;9.216;2023-06-10T13:09:45;29.90;35.60
610;DHT22;292;48.800;9.216;2023-06-10T13:12:14;29.90;35.40
610;DHT22;292;48.800;9.216;2023-06-10T13:14:43;29.90;35.40
610;DHT22;292;48.800;9.216;2023-06-10T13:17:10;29.90;35.40
610;DHT22;292;48.800;9.216;2023-06-10T13:19:37;29.90;35.40
610;DHT22;292;48.800;9.216;2023-06-10T13:22:04;30.00;35.40
610;DHT22;292;48.800;9.216;2023-06-10T13:24:31;30.00;35.80
610;DHT22;292;48.800;9.216;2023-06-10T13:27:00;30.00;35.70
610;DHT22;292;48.800;9.216;2023-06-10T13:29:27;30.10;35.40
610;DHT22;292;48.800;9.216;2023-06-10T13:31:54;30.10;35.20
610;DHT22;292;48.800;9.216;2023-06-10T13:34:21;30.10;35.00
610;DHT22;292;48.800;9.216;2023-06-10T13:36:48;30.20;35.00
610;DHT22;292;48.800;9.216;2023-06-10T13:39:15;30.20;34.60
610;DHT22;292;48.800;9.216;2023-06-10T13:41:42;30.10;34.50
610;DHT22;292;48.800;9.216;2023-06-10T13:44:10;30.10;34.50
610;DHT22;292;48.800;9.216;2023-06-10T13:46:37;30.10;34.40
610;DHT22;292;48.800;9.216;2023-06-10T13:49:04;30.10;34.50
610;DHT22;292;48.800;9.216;2023-06-10T13:51:32;30.00;34.50
610;DHT22;292;48.800;9.216;2023-06-10T13:53:58;30.00;34.60
610;DHT22;292;48.800;9.216;2023-06-10T13:56:25;30.00;34.50
610;DHT22;292;48.800;9.216;2023-06-10T13:58:53;30.00;34.60
610;DHT22;292;48.800;9.216;2023-06-10T14:01:21;30.00;34.50
610;DHT22;292;48.800;9.216;2023-06-10T14:03:48;30.00;34.60
610;DHT22;292;48.800;9.216;2023-06-10T14:06:15;30.10;34.60
610;DHT22;292;48.800;9.216;2023-06-10T14:08:44;30.10;34.50
610;DHT22;292;48.800;9.216;2023-06-10T14:11:11;30.20;34.40
610;DHT22;292;48.800;9.216;2023-06-10T14:13:38;30.30;34.50
610;DHT22;292;48.800;9.216;2023-06-10T14:16:05;30.30;34.40
610;DHT22;292;48.800;9.216;2023-06-10T14:18:33;30.40;34.20
610;DHT22;292;48.800;9.216;2023-06-10T14:21:00;30.50;33.80
610;DHT22;292;48.800;9.216;2023-06-10T14:23:27;30.60;33.70
610;DHT22;292;48.800;9.216;2023-06-10T14:25:54;30.60;33.40
610;DHT22;292;48.800;9.216;2023-06-10T14:28:21;30.70;33.20
610;DHT22;292;48.800;9.216;2023-06-10T14:30:49;30.70;33.20
610;DHT22;292;48.800;9.216;2023-06-10T14:33:16;30.80;33.20
610;DHT22;292;48.800;9.216;2023-06-10T14:35:45;30.80;33.30
610;DHT22;292;48.800;9.216;2023-06-10T14:38:12;30.90;33.30
610;DHT22;292;48.800;9.216;2023-06-10T14:40:39;31.00;33.30
610;DHT22;292;48.800;9.216;2023-06-10T14:43:06;31.00;33.00
610;DHT22;292;48.800;9.216;2023-06-10T14:45:35;31.00;32.90
610;DHT22;292;48.800;9.216;2023-06-10T14:48:03;31.00;32.80
610;DHT22;292;48.800;9.216;2023-06-10T14:50:30;30.90;32.90
610;DHT22;292;48.800;9.216;2023-06-10T14:52:59;30.90;32.90
610;DHT22;292;48.800;9.216;2023-06-10T14:55:27;30.80;32.90
610;DHT22;292;48.800;9.216;2023-06-10T14:57:54;30.80;33.00
610;DHT22;292;48.800;9.216;2023-06-10T15:00:22;30.70;33.00
610;DHT22;292;48.800;9.216;2023-06-10T15:02:49;30.70;33.20
610;DHT22;292;48.800;9.216;2023-06-10T15:05:17;30.70;33.40
610;DHT22;292;48.800;9.216;2023-06-10T15:07:45;30.70;33.40
610;DHT22;292;48.800;9.216;2023-06-10T15:10:14;30.70;33.30
610;DHT22;292;48.800;9.216;2023-06-10T15:12:41;30.70;33.60
610;DHT22;292;48.800;9.216;2023-06-10T15:15:19;30.60;33.70
610;DHT22;292;48.800;9.216;2023-06-10T15:17:46;30.60;33.80
610;DHT22;292;48.800;9.216;2023-06-10T15:20:15;30.60;34.00
610;DHT22;292;48.800;9.216;2023-06-10T15:22:42;30.60;34.00
610;DHT22;292;48.800;9.216;2023-06-10T15:25:10;30.60;33.70
610;DHT22;292;48.800;9.216;2023-06-10T15:27:38;30.70;33.40
610;DHT22;292;48.800;9.216;2023-06-10T15:30:07;30.80;33.30
610;DHT22;292;48.800;9.216;2023-06-10T15:32:34;30.80;33.00
610;DHT22;292;48.800;9.216;2023-06-10T15:35:00;30.90;32.90
610;DHT22;292;48.800;9.216;2023-06-10T15:37:27;31.00;32.40
610;DHT22;292;48.800;9.216;2023-06-10T15:39:54;31.10;32.40
610;DHT22;292;48.800;9.216;2023-06-10T15:42:22;31.20;32.50
610;DHT22;292;48.800;9.216;2023-06-10T15:44:51;31.20;32.90
610;DHT22;292;48.800;9.216;2023-06-10T15:47:18;31.30;33.30
610;DHT22;292;48.800;9.216;2023-06-10T15:49:46;31.30;33.20
610;DHT22;292;48.800;9.216;2023-06-10T15:52:13;31.40;33.00
610;DHT22;292;48.800;9.216;2023-06-10T15:54:41;31.50;32.80
610;DHT22;292;48.800;9.216;2023-06-10T15:57:08;31.50;32.50
610;DHT22;292;48.800;9.216;2023-06-10T15:59:35;31.60;32.20
610;DHT22;292;48.800;9.216;2023-06-10T16:02:04;31.70;31.80
610;DHT22;292;48.800;9.216;2023-06-10T16:04:31;31.70;31.40
610;DHT22;292;48.800;9.216;2023-06-10T16:06:58;31.80;31.40
610;DHT22;292;48.800;9.216;2023-06-10T16:09:25;31.80;31.40
610;DHT22;292;48.800;9.216;2023-06-10T16:11:52;31.90;31.30
610;DHT22;292;48.800;9.216;2023-06-10T16:14:20;31.90;31.20
610;DHT22;292;48.800;9.216;2023-06-10T16:16:47;32.00;31.40
610;DHT22;292;48.800;9.216;2023-06-10T16:19:15;32.00;31.40
610;DHT22;292;48.800;9.216;2023-06-10T16:21:42;32.00;31.40
610;DHT22;292;48.800;9.216;2023-06-10T16:24:09;32.10;31.60
610;DHT22;292;48.800;9.216;2023-06-10T16:26:37;32.10;31.40
610;DHT22;292;48.800;9.216;2023-06-10T16:29:04;32.20;31.30
610;DHT22;292;48.800;9.216;2023-06-10T16:31:31;32.20;31.40
610;DHT22;292;48.800;9.216;2023-06-10T16:33:58;32.20;31.40
610;DHT22;292;48.800;9.216;2023-06-10T16:36:27;32.30;30.90
610;DHT22;292;48.800;9.216;2023-06-10T16:38:54;32.30;30.50
610;DHT22;292;48.800;9.216;2023-06-10T16:41:24;32.30;30.10